sensor_id;sensor_type;location;lat;lon;timestamp;pressure;altitude;pressure_sealevel;temperature;humidity
61408;BME280;47274;43.054;25.146;2022-10-16T00:01:28;96281.66;;;7.00;100.00
61408;BME280;47274;43.054;25.146;2022-10-16T00:03:55;96278.31;;;6.99;100.00
61408;BME280;47274;43.054;25.146;2022-10-16T00:06:22;96252.19;;;6.83;100.00
61408;BME280;47274;43.054;25.146;2022-10-16T00:08:49;96249.78;;;6.81;99.89
61408;BME280;47274;43.054;25.146;2022-10-16T00:11:27;96284.34;;;6.98;100.00
61408;BME280;47274;43.054;25.146;2022-10-16T00:13:59;96270.84;;;6.96;100.00
61408;BME280;47274;43.054;25.146;2022-10-16T00:16:26;96283.81;;;7.06;100.00
61408;BME280;47274;43.054;25.146;2022-10-16T00:18:52;96282.91;;;6.94;99.33
61408;BME280;47274;43.054;25.146;2022-10-16T00:21:24;96295.22;;;7.00;100.00
61408;BME280;47274;43.054;25.146;2022-10-16T00:23:52;96292.88;;;6.97;100.00
61408;BME280;47274;43.054;25.146;2022-10-16T00:26:19;96303.09;;;6.97;100.00
61408;BME280;47274;43.054;25.146;2022-10-16T00:28:47;96300.88;;;6.93;99.71
61408;BME280;47274;43.054;25.146;2022-10-16T00:31:13;96302.22;;;6.85;99.84
61408;BME280;47274;43.054;25.146;2022-10-16T00:33:39;96293.13;;;6.81;100.00
61408;BME280;47274;43.054;25.146;2022-10-16T00:36:07;96305.69;;;6.84;100.00
61408;BME280;47274;43.054;25.146;2022-10-16T00:38:33;96297.44;;;6.81;100.00
61408;BME280;47274;43.054;25.146;2022-10-16T00:41:00;96301.72;;;6.80;99.31
61408;BME280;47274;43.054;25.146;2022-10-16T00:46:28;96216.28;;;6.24;100.00
61408;BME280;47274;43.054;25.146;2022-10-16T00:49:14;96291.81;;;6.63;99.62
61408;BME280;47274;43.054;25.146;2022-10-16T00:51:43;96314.75;;;6.63;100.00
61408;BME280;47274;43.054;25.146;2022-10-16T00:54:14;96282.25;;;6.41;100.00
61408;BME280;47274;43.054;25.146;2022-10-16T00:56:42;96297.22;;;6.46;100.00
61408;BME280;47274;43.054;25.146;2022-10-16T00:59:34;96318.56;;;6.70;100.00
61408;BME280;47274;43.054;25.146;2022-10-16T01:02:02;96297.75;;;6.38;100.00
61408;BME280;47274;43.054;25.146;2022-10-16T01:04:34;96317.94;;;6.54;100.00
61408;BME280;47274;43.054;25.146;2022-10-16T01:07:30;96314.06;;;6.48;100.00
61408;BME280;47274;43.054;25.146;2022-10-16T01:10:14;96326.81;;;6.48;100.00
61408;BME280;47274;43.054;25.146;2022-10-16T01:18:11;96334.94;;;6.28;100.00
61408;BME280;47274;43.054;25.146;2022-10-16T01:21:08;96321.16;;;6.17;100.00
61408;BME280;47274;43.054;25.146;2022-10-16T01:27:12;96319.19;;;6.08;100.00
61408;BME280;47274;43.054;25.146;2022-10-16T01:29:56;96327.78;;;6.07;100.00
61408;BME280;47274;43.054;25.146;2022-10-16T01:35:18;96315.84;;;5.95;100.00
61408;BME280;47274;43.054;25.146;2022-10-16T01:38:02;96297.41;;;5.77;100.00
61408;BME280;47274;43.054;25.146;2022-10-16T01:40:30;96329.75;;;5.89;100.00
61408;BME280;47274;43.054;25.146;2022-10-16T01:43:02;96335.13;;;5.85;100.00
61408;BME280;47274;43.054;25.146;2022-10-16T01:45:30;96331.88;;;5.83;100.00
61408;BME280;47274;43.054;25.146;2022-10-16T01:47:58;96323.16;;;5.73;100.00
61408;BME280;47274;43.054;25.146;2022-10-16T01:50:26;96321.13;;;5.65;100.00
61408;BME280;47274;43.054;25.146;2022-10-16T01:52:55;96330.50;;;5.77;100.00
61408;BME280;47274;43.054;25.146;2022-10-16T01:55:27;96217.22;;;5.03;100.00
61408;BME280;47274;43.054;25.146;2022-10-16T01:57:56;96339.38;;;5.84;100.00
61408;BME280;47274;43.054;25.146;2022-10-16T02:00:23;96336.38;;;5.92;100.00
61408;BME280;47274;43.054;25.146;2022-10-16T02:02:52;96331.38;;;5.90;100.00
61408;BME280;47274;43.054;25.146;2022-10-16T02:08:17;96342.81;;;5.98;100.00
61408;BME280;47274;43.054;25.146;2022-10-16T02:10:43;96344.28;;;6.02;100.00
61408;BME280;47274;43.054;25.146;2022-10-16T02:13:14;96337.16;;;6.07;100.00
61408;BME280;47274;43.054;25.146;2022-10-16T02:15:42;96323.91;;;6.02;100.00
61408;BME280;47274;43.054;25.146;2022-10-16T02:18:09;96333.56;;;5.97;100.00
61408;BME280;47274;43.054;25.146;2022-10-16T02:21:00;96337.38;;;5.89;100.00
61408;BME280;47274;43.054;25.146;2022-10-16T02:26:36;96341.91;;;5.72;100.00
61408;BME280;47274;43.054;25.146;2022-10-16T02:29:09;96339.75;;;5.65;100.00
61408;BME280;47274;43.054;25.146;2022-10-16T02:31:41;96337.13;;;5.53;100.00
61408;BME280;47274;43.054;25.146;2022-10-16T02:34:10;96329.53;;;5.38;100.00
61408;BME280;47274;43.054;25.146;2022-10-16T02:36:39;96345.06;;;5.48;100.00
61408;BME280;47274;43.054;25.146;2022-10-16T02:39:06;96341.59;;;5.49;100.00
61408;BME280;47274;43.054;25.146;2022-10-16T02:41:33;96337.00;;;5.41;100.00
61408;BME280;47274;43.054;25.146;2022-10-16T02:43:59;96341.72;;;5.33;100.00
61408;BME280;47274;43.054;25.146;2022-10-16T02:46:25;96349.09;;;5.38;100.00
61408;BME280;47274;43.054;25.146;2022-10-16T02:48:51;96350.44;;;5.43;100.00
61408;BME280;47274;43.054;25.146;2022-10-16T02:51:16;96349.78;;;5.54;100.00
61408;BME280;47274;43.054;25.146;2022-10-16T02:53:42;96361.84;;;5.65;100.00
61408;BME280;47274;43.054;25.146;2022-10-16T02:56:08;96359.19;;;5.66;100.00
61408;BME280;47274;43.054;25.146;2022-10-16T02:58:34;96357.38;;;5.68;100.00
61408;BME280;47274;43.054;25.146;2022-10-16T03:01:00;96375.34;;;5.80;100.00
61408;BME280;47274;43.054;25.146;2022-10-16T03:03:26;96367.41;;;5.84;100.00
61408;BME280;47274;43.054;25.146;2022-10-16T03:05:52;96363.72;;;5.76;100.00
61408;BME280;47274;43.054;25.146;2022-10-16T03:08:18;96358.25;;;5.82;100.00
61408;BME280;47274;43.054;25.146;2022-10-16T03:10:49;96366.09;;;5.79;100.00
61408;BME280;47274;43.054;25.146;2022-10-16T03:13:15;96355.28;;;5.75;100.00
61408;BME280;47274;43.054;25.146;2022-10-16T03:15:41;96367.81;;;5.78;100.00
61408;BME280;47274;43.054;25.146;2022-10-16T03:18:07;96368.25;;;5.85;100.00
61408;BME280;47274;43.054;25.146;2022-10-16T03:20:33;96368.69;;;5.91;100.00
61408;BME280;47274;43.054;25.146;2022-10-16T03:22:59;96357.94;;;5.86;100.00
61408;BME280;47274;43.054;25.146;2022-10-16T03:25:25;96361.50;;;5.84;100.00
61408;BME280;47274;43.054;25.146;2022-10-16T03:27:51;96382.00;;;5.82;100.00
61408;BME280;47274;43.054;25.146;2022-10-16T03:30:17;96380.19;;;5.70;100.00
61408;BME280;47274;43.054;25.146;2022-10-16T03:32:44;96378.03;;;5.64;100.00
61408;BME280;47274;43.054;25.146;2022-10-16T03:35:10;96377.13;;;5.65;100.00
61408;BME280;47274;43.054;25.146;2022-10-16T03:37:36;96368.56;;;5.66;100.00
61408;BME280;47274;43.054;25.146;2022-10-16T03:40:03;96366.41;;;5.60;100.00
61408;BME280;47274;43.054;25.146;2022-10-16T03:42:29;96378.03;;;5.64;100.00
61408;BME280;47274;43.054;25.146;2022-10-16T03:44:55;96352.16;;;5.43;100.00
61408;BME280;47274;43.054;25.146;2022-10-16T03:47:21;96385.88;;;5.61;100.00
61408;BME280;47274;43.054;25.146;2022-10-16T03:49:49;96372.06;;;5.51;100.00
61408;BME280;47274;43.054;25.146;2022-10-16T03:52:16;96316.41;;;5.17;100.00
61408;BME280;47274;43.054;25.146;2022-10-16T03:54:43;96379.31;;;5.57;100.00
61408;BME280;47274;43.054;25.146;2022-10-16T03:57:09;96384.94;;;5.62;100.00
61408;BME280;47274;43.054;25.146;2022-10-16T03:59:34;96385.41;;;5.68;100.00
61408;BME280;47274;43.054;25.146;2022-10-16T04:02:00;96371.50;;;5.60;100.00
61408;BME280;47274;43.054;25.146;2022-10-16T04:04:26;96389.13;;;5.63;100.00
61408;BME280;47274;43.054;25.146;2022-10-16T04:06:52;96390.50;;;5.68;100.00
61408;BME280;47274;43.054;25.146;2022-10-16T04:09:18;96383.22;;;5.62;100.00
61408;BME280;47274;43.054;25.146;2022-10-16T04:11:43;96377.03;;;5.66;100.00
61408;BME280;47274;43.054;25.146;2022-10-16T04:14:10;96384.28;;;5.73;100.00
61408;BME280;47274;43.054;25.146;2022-10-16T04:16:36;96385.09;;;5.73;100.00
61408;BME280;47274;43.054;25.146;2022-10-16T04:19:02;96381.84;;;5.71;100.00
61408;BME280;47274;43.054;25.146;2022-10-16T04:21:28;96385.03;;;5.75;100.00
61408;BME280;47274;43.054;25.146;2022-10-16T04:23:54;96384.41;;;5.71;100.00
61408;BME280;47274;43.054;25.146;2022-10-16T04:26:20;96390.97;;;5.61;100.00
61408;BME280;47274;43.054;25.146;2022-10-16T04:28:46;96389.06;;;5.50;100.00
61408;BME280;47274;43.054;25.146;2022-10-16T04:31:12;96403.50;;;5.50;100.00
61408;BME280;47274;43.054;25.146;2022-10-16T04:33:38;96391.16;;;5.43;100.00
61408;BME280;47274;43.054;25.146;2022-10-16T04:36:04;96399.38;;;5.34;100.00
61408;BME280;47274;43.054;25.146;2022-10-16T04:38:30;96366.50;;;5.17;100.00
61408;BME280;47274;43.054;25.146;2022-10-16T04:40:56;96406.25;;;5.32;100.00
61408;BME280;47274;43.054;25.146;2022-10-16T04:43:23;96416.25;;;5.35;100.00
61408;BME280;47274;43.054;25.146;2022-10-16T04:45:49;96405.09;;;5.23;100.00
61408;BME280;47274;43.054;25.146;2022-10-16T04:48:18;96409.28;;;5.25;100.00
61408;BME280;47274;43.054;25.146;2022-10-16T04:50:44;96380.66;;;5.21;100.00
61408;BME280;47274;43.054;25.146;2022-10-16T04:53:12;96411.16;;;5.50;100.00
61408;BME280;47274;43.054;25.146;2022-10-16T04:55:38;96403.34;;;5.53;100.00
61408;BME280;47274;43.054;25.146;2022-10-16T04:58:04;96418.31;;;5.72;100.00
61408;BME280;47274;43.054;25.146;2022-10-16T05:00:30;96403.69;;;5.88;100.00
61408;BME280;47274;43.054;25.146;2022-10-16T05:02:56;96412.72;;;5.93;100.00
61408;BME280;47274;43.054;25.146;2022-10-16T05:05:22;96403.66;;;5.75;100.00
61408;BME280;47274;43.054;25.146;2022-10-16T05:07:48;96424.66;;;5.79;100.00
61408;BME280;47274;43.054;25.146;2022-10-16T05:10:15;96411.38;;;5.74;100.00
61408;BME280;47274;43.054;25.146;2022-10-16T05:12:42;96421.94;;;5.82;100.00
61408;BME280;47274;43.054;25.146;2022-10-16T05:15:10;96414.91;;;5.85;100.00
61408;BME280;47274;43.054;25.146;2022-10-16T05:17:36;96425.81;;;6.02;100.00
61408;BME280;47274;43.054;25.146;2022-10-16T05:20:02;96419.41;;;6.09;99.40
61408;BME280;47274;43.054;25.146;2022-10-16T05:22:28;96415.75;;;6.13;98.93
61408;BME280;47274;43.054;25.146;2022-10-16T05:24:54;96433.72;;;6.24;98.94
61408;BME280;47274;43.054;25.146;2022-10-16T05:27:20;96380.78;;;6.02;98.13
61408;BME280;47274;43.054;25.146;2022-10-16T05:29:48;96429.09;;;6.44;97.60
61408;BME280;47274;43.054;25.146;2022-10-16T05:32:18;96401.63;;;6.34;96.80
61408;BME280;47274;43.054;25.146;2022-10-16T05:34:44;96440.66;;;6.62;95.03
61408;BME280;47274;43.054;25.146;2022-10-16T05:37:12;96419.03;;;6.55;94.45
61408;BME280;47274;43.054;25.146;2022-10-16T05:39:39;96436.41;;;6.88;93.76
61408;BME280;47274;43.054;25.146;2022-10-16T05:42:06;96454.25;;;7.01;94.01
61408;BME280;47274;43.054;25.146;2022-10-16T05:44:33;96446.31;;;7.05;93.54
61408;BME280;47274;43.054;25.146;2022-10-16T05:46:59;96450.38;;;7.21;91.40
61408;BME280;47274;43.054;25.146;2022-10-16T05:49:25;96452.75;;;7.24;91.04
61408;BME280;47274;43.054;25.146;2022-10-16T05:51:50;96423.25;;;7.07;90.74
61408;BME280;47274;43.054;25.146;2022-10-16T05:54:17;96455.38;;;7.48;89.62
61408;BME280;47274;43.054;25.146;2022-10-16T05:56:43;96449.13;;;7.65;87.85
61408;BME280;47274;43.054;25.146;2022-10-16T05:59:09;96463.94;;;7.96;88.58
61408;BME280;47274;43.054;25.146;2022-10-16T06:01:35;96461.53;;;7.82;87.07
61408;BME280;47274;43.054;25.146;2022-10-16T06:04:02;96468.91;;;7.87;86.74
61408;BME280;47274;43.054;25.146;2022-10-16T06:06:28;96472.97;;;7.89;85.39
61408;BME280;47274;43.054;25.146;2022-10-16T06:08:56;96472.94;;;8.02;84.96
61408;BME280;47274;43.054;25.146;2022-10-16T06:11:28;96486.06;;;7.97;84.59
61408;BME280;47274;43.054;25.146;2022-10-16T06:13:56;96481.25;;;7.93;83.81
61408;BME280;47274;43.054;25.146;2022-10-16T06:16:23;96481.38;;;8.15;85.16
61408;BME280;47274;43.054;25.146;2022-10-16T06:18:53;96484.81;;;8.40;84.25
61408;BME280;47274;43.054;25.146;2022-10-16T06:21:22;96485.91;;;8.84;81.70
61408;BME280;47274;43.054;25.146;2022-10-16T06:23:51;96490.53;;;9.14;79.14
61408;BME280;47274;43.054;25.146;2022-10-16T06:26:21;96505.97;;;9.81;79.00
61408;BME280;47274;43.054;25.146;2022-10-16T06:28:48;96505.31;;;10.34;74.67
61408;BME280;47274;43.054;25.146;2022-10-16T06:31:15;96505.72;;;9.95;74.31
61408;BME280;47274;43.054;25.146;2022-10-16T06:33:41;96516.38;;;10.34;76.46
61408;BME280;47274;43.054;25.146;2022-10-16T06:36:12;96501.97;;;10.86;71.64
61408;BME280;47274;43.054;25.146;2022-10-16T06:38:41;96515.72;;;10.64;73.72
61408;BME280;47274;43.054;25.146;2022-10-16T06:41:11;96517.22;;;11.20;73.49
61408;BME280;47274;43.054;25.146;2022-10-16T06:43:37;96516.25;;;11.63;71.26
61408;BME280;47274;43.054;25.146;2022-10-16T06:46:04;96522.13;;;12.05;69.25
61408;BME280;47274;43.054;25.146;2022-10-16T06:48:30;96516.84;;;12.17;66.57
61408;BME280;47274;43.054;25.146;2022-10-16T06:53:23;96521.53;;;12.71;66.92
61408;BME280;47274;43.054;25.146;2022-10-16T06:55:49;96529.94;;;12.54;66.15
61408;BME280;47274;43.054;25.146;2022-10-16T06:58:16;96527.19;;;12.36;65.24
61408;BME280;47274;43.054;25.146;2022-10-16T07:00:44;96509.81;;;12.09;64.14
61408;BME280;47274;43.054;25.146;2022-10-16T07:03:10;96536.41;;;11.89;69.73
61408;BME280;47274;43.054;25.146;2022-10-16T07:05:38;96531.31;;;12.68;67.41
61408;BME280;47274;43.054;25.146;2022-10-16T07:08:05;96536.03;;;12.43;65.72
61408;BME280;47274;43.054;25.146;2022-10-16T07:10:32;96537.06;;;12.21;66.53
61408;BME280;47274;43.054;25.146;2022-10-16T07:12:58;96524.81;;;12.83;63.72
61408;BME280;47274;43.054;25.146;2022-10-16T07:15:24;96544.47;;;13.33;65.41
61408;BME280;47274;43.054;25.146;2022-10-16T07:17:51;96544.38;;;13.81;62.20
61408;BME280;47274;43.054;25.146;2022-10-16T07:20:17;96538.13;;;14.11;60.51
61408;BME280;47274;43.054;25.146;2022-10-16T07:22:43;96545.56;;;14.42;60.35
61408;BME280;47274;43.054;25.146;2022-10-16T07:25:09;96549.78;;;14.71;59.11
61408;BME280;47274;43.054;25.146;2022-10-16T07:27:36;96546.22;;;15.25;58.92
61408;BME280;47274;43.054;25.146;2022-10-16T07:30:03;96537.19;;;15.73;58.23
61408;BME280;47274;43.054;25.146;2022-10-16T07:32:30;96515.44;;;15.92;53.23
61408;BME280;47274;43.054;25.146;2022-10-16T07:34:56;96547.94;;;16.21;54.66
61408;BME280;47274;43.054;25.146;2022-10-16T07:37:22;96539.88;;;16.40;55.38
61408;BME280;47274;43.054;25.146;2022-10-16T07:39:48;96548.00;;;16.45;54.17
61408;BME280;47274;43.054;25.146;2022-10-16T07:42:14;96534.81;;;16.22;56.09
61408;BME280;47274;43.054;25.146;2022-10-16T07:44:41;96555.28;;;16.42;55.46
61408;BME280;47274;43.054;25.146;2022-10-16T07:47:07;96537.31;;;15.98;54.80
61408;BME280;47274;43.054;25.146;2022-10-16T07:49:33;96543.28;;;16.32;53.83
61408;BME280;47274;43.054;25.146;2022-10-16T07:51:58;96555.00;;;15.76;51.94
61408;BME280;47274;43.054;25.146;2022-10-16T07:54:25;96553.22;;;16.11;53.13
61408;BME280;47274;43.054;25.146;2022-10-16T07:56:51;96550.66;;;15.15;54.27
61408;BME280;47274;43.054;25.146;2022-10-16T07:59:17;96545.19;;;15.88;55.12
61408;BME280;47274;43.054;25.146;2022-10-16T08:01:44;96555.03;;;16.19;54.08
61408;BME280;47274;43.054;25.146;2022-10-16T08:04:12;96557.47;;;15.86;53.37
61408;BME280;47274;43.054;25.146;2022-10-16T08:06:39;96560.38;;;15.83;52.31
61408;BME280;47274;43.054;25.146;2022-10-16T08:09:06;96556.56;;;17.13;49.72
61408;BME280;47274;43.054;25.146;2022-10-16T08:11:35;96562.88;;;17.43;49.11
61408;BME280;47274;43.054;25.146;2022-10-16T08:14:02;96551.91;;;18.13;47.02
61408;BME280;47274;43.054;25.146;2022-10-16T08:16:29;96566.97;;;18.26;46.95
61408;BME280;47274;43.054;25.146;2022-10-16T08:18:58;96565.50;;;18.23;46.73
61408;BME280;47274;43.054;25.146;2022-10-16T08:21:24;96570.59;;;18.47;44.70
61408;BME280;47274;43.054;25.146;2022-10-16T08:23:51;96561.66;;;18.11;45.95
61408;BME280;47274;43.054;25.146;2022-10-16T08:26:17;96564.63;;;19.01;46.13
61408;BME280;47274;43.054;25.146;2022-10-16T08:28:42;96559.88;;;19.65;45.05
61408;BME280;47274;43.054;25.146;2022-10-16T08:31:13;96536.06;;;19.16;43.64
61408;BME280;47274;43.054;25.146;2022-10-16T08:33:41;96558.19;;;20.32;41.21
61408;BME280;47274;43.054;25.146;2022-10-16T08:36:10;96555.97;;;19.99;42.32
61408;BME280;47274;43.054;25.146;2022-10-16T08:38:36;96544.44;;;18.10;44.17
61408;BME280;47274;43.054;25.146;2022-10-16T08:47:17;96559.81;;;19.74;40.60
61408;BME280;47274;43.054;25.146;2022-10-16T08:49:35;96557.53;;;18.24;44.15
61408;BME280;47274;43.054;25.146;2022-10-16T08:52:02;96562.22;;;19.37;42.70
61408;BME280;47274;43.054;25.146;2022-10-16T08:54:36;96565.03;;;20.18;39.77
61408;BME280;47274;43.054;25.146;2022-10-16T08:57:19;96564.75;;;20.94;39.64
61408;BME280;47274;43.054;25.146;2022-10-16T08:59:46;96558.72;;;20.42;39.28
61408;BME280;47274;43.054;25.146;2022-10-16T09:02:56;96567.41;;;19.60;39.97
61408;BME280;47274;43.054;25.146;2022-10-16T09:10:56;96574.72;;;20.54;38.90
61408;BME280;47274;43.054;25.146;2022-10-16T09:13:43;96581.69;;;21.04;38.89
61408;BME280;47274;43.054;25.146;2022-10-16T09:16:22;96572.31;;;21.53;37.60
61408;BME280;47274;43.054;25.146;2022-10-16T09:18:58;96574.56;;;21.13;38.45
61408;BME280;47274;43.054;25.146;2022-10-16T09:21:31;96572.75;;;20.41;38.13
61408;BME280;47274;43.054;25.146;2022-10-16T09:24:29;96578.69;;;21.72;37.25
61408;BME280;47274;43.054;25.146;2022-10-16T09:26:55;96568.66;;;22.45;37.63
61408;BME280;47274;43.054;25.146;2022-10-16T09:29:21;96569.72;;;22.51;35.83
61408;BME280;47274;43.054;25.146;2022-10-16T09:31:49;96577.47;;;22.31;36.23
61408;BME280;47274;43.054;25.146;2022-10-16T09:34:31;96576.91;;;22.07;35.80
61408;BME280;47274;43.054;25.146;2022-10-16T09:37:03;96574.63;;;22.80;36.40
61408;BME280;47274;43.054;25.146;2022-10-16T09:39:30;96550.97;;;23.55;34.18
61408;BME280;47274;43.054;25.146;2022-10-16T09:41:56;96579.59;;;23.30;34.60
61408;BME280;47274;43.054;25.146;2022-10-16T09:44:29;96580.19;;;22.57;35.67
61408;BME280;47274;43.054;25.146;2022-10-16T09:47:12;96569.78;;;21.38;36.57
61408;BME280;47274;43.054;25.146;2022-10-16T09:49:51;96560.16;;;20.30;38.21
61408;BME280;47274;43.054;25.146;2022-10-16T09:52:18;96527.78;;;19.35;39.22
61408;BME280;47274;43.054;25.146;2022-10-16T09:54:54;96524.81;;;19.91;40.20
61408;BME280;47274;43.054;25.146;2022-10-16T09:57:22;96559.28;;;20.23;39.98
61408;BME280;47274;43.054;25.146;2022-10-16T09:59:53;96562.06;;;20.06;38.74
61408;BME280;47274;43.054;25.146;2022-10-16T10:02:31;96561.88;;;19.78;39.04
61408;BME280;47274;43.054;25.146;2022-10-16T10:04:59;96564.34;;;19.57;39.89
61408;BME280;47274;43.054;25.146;2022-10-16T10:07:32;96563.59;;;20.45;39.17
61408;BME280;47274;43.054;25.146;2022-10-16T10:10:02;96528.50;;;21.48;37.42
61408;BME280;47274;43.054;25.146;2022-10-16T10:12:30;96558.59;;;22.07;36.58
61408;BME280;47274;43.054;25.146;2022-10-16T10:15:10;96565.38;;;21.95;35.74
61408;BME280;47274;43.054;25.146;2022-10-16T10:18:24;96570.38;;;22.24;34.07
61408;BME280;47274;43.054;25.146;2022-10-16T10:20:59;96559.25;;;21.81;34.41
61408;BME280;47274;43.054;25.146;2022-10-16T10:23:27;96551.78;;;21.71;35.92
61408;BME280;47274;43.054;25.146;2022-10-16T10:26:20;96529.56;;;22.23;34.87
61408;BME280;47274;43.054;25.146;2022-10-16T10:31:36;96518.09;;;20.48;36.00
61408;BME280;47274;43.054;25.146;2022-10-16T10:38:00;96536.16;;;21.57;33.63
61408;BME280;47274;43.054;25.146;2022-10-16T10:40:45;96538.00;;;22.26;33.54
61408;BME280;47274;43.054;25.146;2022-10-16T10:43:48;96529.94;;;22.20;31.85
61408;BME280;47274;43.054;25.146;2022-10-16T10:46:41;96528.00;;;22.01;31.94
61408;BME280;47274;43.054;25.146;2022-10-16T10:51:59;96531.25;;;22.44;33.06
61408;BME280;47274;43.054;25.146;2022-10-16T11:07:54;96527.84;;;21.68;34.37
61408;BME280;47274;43.054;25.146;2022-10-16T11:10:43;96523.84;;;22.55;31.96
61408;BME280;47274;43.054;25.146;2022-10-16T11:13:21;96521.44;;;22.66;31.12
61408;BME280;47274;43.054;25.146;2022-10-16T11:15:52;96515.84;;;22.15;32.67
61408;BME280;47274;43.054;25.146;2022-10-16T11:18:27;96514.25;;;22.82;31.88
61408;BME280;47274;43.054;25.146;2022-10-16T11:21:05;96524.31;;;22.91;30.66
61408;BME280;47274;43.054;25.146;2022-10-16T11:26:11;96509.97;;;22.61;30.76
61408;BME280;47274;43.054;25.146;2022-10-16T11:29:01;96513.50;;;23.08;30.40
61408;BME280;47274;43.054;25.146;2022-10-16T11:31:43;96515.53;;;21.62;31.25
61408;BME280;47274;43.054;25.146;2022-10-16T11:37:18;96509.78;;;22.76;29.82
61408;BME280;47274;43.054;25.146;2022-10-16T11:39:45;96514.31;;;21.36;32.49
61408;BME280;47274;43.054;25.146;2022-10-16T11:42:30;96502.81;;;21.52;31.68
61408;BME280;47274;43.054;25.146;2022-10-16T11:47:40;96513.00;;;20.76;32.93
61408;BME280;47274;43.054;25.146;2022-10-16T11:53:21;96491.06;;;22.11;31.21
61408;BME280;47274;43.054;25.146;2022-10-16T11:55:49;96518.03;;;22.66;30.43
61408;BME280;47274;43.054;25.146;2022-10-16T12:03:48;96522.69;;;21.88;31.18
61408;BME280;47274;43.054;25.146;2022-10-16T12:06:42;96528.41;;;22.05;31.65
61408;BME280;47274;43.054;25.146;2022-10-16T12:09:32;96524.66;;;21.44;31.91
61408;BME280;47274;43.054;25.146;2022-10-16T12:11:59;96516.22;;;21.77;31.06
61408;BME280;47274;43.054;25.146;2022-10-16T12:22:58;96527.81;;;22.03;30.55
61408;BME280;47274;43.054;25.146;2022-10-16T12:25:39;96520.69;;;22.18;30.43
61408;BME280;47274;43.054;25.146;2022-10-16T12:30:41;96535.06;;;22.42;30.09
61408;BME280;47274;43.054;25.146;2022-10-16T12:33:22;96534.28;;;21.72;30.79
61408;BME280;47274;43.054;25.146;2022-10-16T12:35:49;96517.22;;;21.76;31.27
61408;BME280;47274;43.054;25.146;2022-10-16T12:40:54;96520.59;;;21.70;31.54
61408;BME280;47274;43.054;25.146;2022-10-16T12:45:46;96543.59;;;21.32;31.71
61408;BME280;47274;43.054;25.146;2022-10-16T12:48:22;96538.22;;;20.90;30.71
61408;BME280;47274;43.054;25.146;2022-10-16T12:50:48;96519.25;;;20.30;31.75
61408;BME280;47274;43.054;25.146;2022-10-16T12:53:22;96543.94;;;19.98;31.83
61408;BME280;47274;43.054;25.146;2022-10-16T12:55:57;96534.56;;;20.19;32.67
61408;BME280;47274;43.054;25.146;2022-10-16T12:58:47;96542.84;;;20.07;33.63
61408;BME280;47274;43.054;25.146;2022-10-16T13:04:16;96540.47;;;19.15;34.66
61408;BME280;47274;43.054;25.146;2022-10-16T13:06:53;96536.44;;;19.65;33.67
61408;BME280;47274;43.054;25.146;2022-10-16T13:13:09;96543.31;;;19.58;34.58
61408;BME280;47274;43.054;25.146;2022-10-16T13:18:27;96550.16;;;19.59;35.56
61408;BME280;47274;43.054;25.146;2022-10-16T13:26:13;96519.72;;;18.53;36.72
61408;BME280;47274;43.054;25.146;2022-10-16T13:28:42;96517.41;;;18.27;37.12
61408;BME280;47274;43.054;25.146;2022-10-16T13:31:16;96553.88;;;18.50;36.32
61408;BME280;47274;43.054;25.146;2022-10-16T13:33:47;96552.53;;;18.54;37.33
61408;BME280;47274;43.054;25.146;2022-10-16T13:36:22;96561.13;;;18.55;37.68
61408;BME280;47274;43.054;25.146;2022-10-16T13:39:00;96560.88;;;18.41;37.15
61408;BME280;47274;43.054;25.146;2022-10-16T13:41:26;96560.97;;;18.17;38.40
61408;BME280;47274;43.054;25.146;2022-10-16T13:43:53;96556.59;;;18.17;37.69
61408;BME280;47274;43.054;25.146;2022-10-16T13:46:23;96564.78;;;17.90;38.44
61408;BME280;47274;43.054;25.146;2022-10-16T13:49:11;96557.00;;;17.73;37.92
61408;BME280;47274;43.054;25.146;2022-10-16T13:51:38;96559.44;;;17.67;38.96
61408;BME280;47274;43.054;25.146;2022-10-16T13:54:05;96570.53;;;17.44;39.39
61408;BME280;47274;43.054;25.146;2022-10-16T13:56:32;96571.16;;;17.22;39.71
61408;BME280;47274;43.054;25.146;2022-10-16T13:59:01;96581.34;;;16.99;40.00
61408;BME280;47274;43.054;25.146;2022-10-16T14:01:54;96574.47;;;16.73;39.78
61408;BME280;47274;43.054;25.146;2022-10-16T14:04:21;96537.28;;;16.40;40.99
61408;BME280;47274;43.054;25.146;2022-10-16T14:06:50;96571.22;;;16.63;40.97
61408;BME280;47274;43.054;25.146;2022-10-16T14:11:59;96573.94;;;16.53;40.23
61408;BME280;47274;43.054;25.146;2022-10-16T14:14:33;96580.81;;;16.28;41.64
61408;BME280;47274;43.054;25.146;2022-10-16T14:17:02;96582.72;;;16.18;40.86
61408;BME280;47274;43.054;25.146;2022-10-16T14:19:29;96581.53;;;16.04;42.34
61408;BME280;47274;43.054;25.146;2022-10-16T14:21:56;96589.50;;;15.85;42.27
61408;BME280;47274;43.054;25.146;2022-10-16T14:24:30;96577.31;;;15.77;42.50
61408;BME280;47274;43.054;25.146;2022-10-16T14:26:57;96564.63;;;15.48;42.82
61408;BME280;47274;43.054;25.146;2022-10-16T14:29:25;96578.03;;;15.44;42.98
61408;BME280;47274;43.054;25.146;2022-10-16T14:32:01;96577.09;;;15.27;43.20
61408;BME280;47274;43.054;25.146;2022-10-16T14:37:00;96571.13;;;15.08;43.83
61408;BME280;47274;43.054;25.146;2022-10-16T14:39:32;96591.00;;;15.08;43.79
61408;BME280;47274;43.054;25.146;2022-10-16T14:41:59;96586.13;;;15.05;43.92
61408;BME280;47274;43.054;25.146;2022-10-16T14:44:34;96591.59;;;14.84;44.69
61408;BME280;47274;43.054;25.146;2022-10-16T14:47:13;96594.34;;;14.73;44.69
61408;BME280;47274;43.054;25.146;2022-10-16T14:49:42;96596.53;;;14.50;45.12
61408;BME280;47274;43.054;25.146;2022-10-16T14:52:10;96606.16;;;14.48;45.25
61408;BME280;47274;43.054;25.146;2022-10-16T14:54:36;96593.47;;;14.36;45.56
61408;BME280;47274;43.054;25.146;2022-10-16T14:57:04;96598.19;;;14.41;45.25